createdAt,value
2023-01-28T00:01:54.855Z,7.35
2023-01-28T00:04:21.190Z,6.55
2023-01-28T00:06:47.485Z,7.50
2023-01-28T00:09:13.925Z,6.10
2023-01-28T00:11:40.226Z,6.35
2023-01-28T00:14:06.566Z,6.57
2023-01-28T00:16:33.064Z,5.95
2023-01-28T00:18:59.383Z,5.57
2023-01-28T00:21:25.667Z,7.10
2023-01-28T00:23:54.797Z,7.93
2023-01-28T00:26:22.309Z,6.78
2023-01-28T00:28:48.611Z,6.38
2023-01-28T00:31:17.500Z,6.80
2023-01-28T00:33:45.671Z,5.72
2023-01-28T00:36:13.081Z,7.45
2023-01-28T00:38:39.515Z,8.43
2023-01-28T00:41:09.766Z,7.53
2023-01-28T00:43:37.294Z,7.55
2023-01-28T00:46:05.037Z,7.90
2023-01-28T00:48:31.329Z,7.03
2023-01-28T00:50:57.606Z,7.18
2023-01-28T00:53:24.081Z,7.40
2023-01-28T00:55:50.508Z,6.80
2023-01-28T00:58:16.862Z,9.27
2023-01-28T01:00:43.113Z,8.50
2023-01-28T01:03:09.396Z,7.97
2023-01-28T01:05:35.850Z,7.88
2023-01-28T01:08:02.594Z,6.47
2023-01-28T01:10:28.956Z,7.35
2023-01-28T01:12:55.275Z,6.72
2023-01-28T01:15:21.551Z,8.63
2023-01-28T01:17:49.395Z,6.35
2023-01-28T01:20:22.007Z,6.40
2023-01-28T01:22:48.574Z,7.00
2023-01-28T01:25:17.581Z,6.97
2023-01-28T01:27:44.919Z,9.20
2023-01-28T01:30:12.378Z,8.85
2023-01-28T01:32:38.784Z,7.93
2023-01-28T01:35:06.573Z,9.25
2023-01-28T01:37:33.087Z,7.97
2023-01-28T01:39:59.434Z,8.40
2023-01-28T01:42:25.981Z,10.77
2023-01-28T01:48:29.977Z,6.88
2023-01-28T01:51:08.824Z,8.48
2023-01-28T01:53:45.746Z,8.55
2023-01-28T01:56:21.737Z,8.18
2023-01-28T01:58:52.180Z,8.57
2023-01-28T02:01:27.849Z,11.63
2023-01-28T02:04:12.604Z,11.32
2023-01-28T02:06:40.637Z,8.35
2023-01-28T02:09:22.469Z,9.13
2023-01-28T02:11:50.001Z,10.93
2023-01-28T02:14:30.679Z,9.13
2023-01-28T02:16:58.879Z,11.15
2023-01-28T02:19:32.248Z,9.75
2023-01-28T02:22:13.460Z,12.15
2023-01-28T02:25:05.967Z,12.90
2023-01-28T02:27:54.041Z,10.35
2023-01-28T02:30:33.077Z,9.27
2023-01-28T02:33:05.492Z,11.18
2023-01-28T02:35:39.438Z,11.95
2023-01-28T02:40:49.975Z,7.45
2023-01-28T02:43:16.362Z,12.52
2023-01-28T02:45:42.764Z,11.35
2023-01-28T02:48:09.147Z,12.65
2023-01-28T02:50:46.212Z,11.13
2023-01-28T02:53:31.492Z,11.38
2023-01-28T02:56:11.795Z,10.55
2023-01-28T02:58:59.328Z,13.63
2023-01-28T03:01:36.979Z,10.50
2023-01-28T03:04:33.664Z,10.50
2023-01-28T03:07:03.300Z,12.00
2023-01-28T03:09:30.788Z,10.63
2023-01-28T03:12:21.193Z,12.85
2023-01-28T03:14:55.152Z,10.48
2023-01-28T03:19:58.811Z,10.02
2023-01-28T03:22:29.111Z,9.75
2023-01-28T03:24:56.066Z,13.60
2023-01-28T03:27:39.960Z,11.85
2023-01-28T03:30:14.872Z,10.63
2023-01-28T03:32:42.731Z,12.35
2023-01-28T03:37:38.152Z,12.50
2023-01-28T03:40:07.173Z,13.80
2023-01-28T03:42:33.771Z,11.63
2023-01-28T03:45:00.500Z,14.10
2023-01-28T03:47:29.175Z,12.65
2023-01-28T03:49:57.121Z,10.77
2023-01-28T03:52:29.451Z,12.20
2023-01-28T03:54:56.326Z,12.32
2023-01-28T03:57:26.177Z,13.02
2023-01-28T03:59:53.030Z,14.00
2023-01-28T04:02:23.176Z,13.32
2023-01-28T04:04:49.780Z,14.10
2023-01-28T04:07:16.725Z,14.68
2023-01-28T04:09:43.486Z,11.35
2023-01-28T04:12:10.316Z,13.55
2023-01-28T04:14:36.694Z,11.68
2023-01-28T04:17:03.007Z,13.05
2023-01-28T04:19:29.400Z,11.98
2023-01-28T04:21:55.729Z,13.95
2023-01-28T04:24:23.092Z,13.68
2023-01-28T04:26:49.512Z,13.77
2023-01-28T04:29:15.808Z,15.00
2023-01-28T04:31:42.308Z,11.30
2023-01-28T04:34:08.717Z,14.60
2023-01-28T04:36:35.116Z,12.13
2023-01-28T04:39:01.509Z,12.32
2023-01-28T04:41:27.840Z,16.80
2023-01-28T04:43:54.334Z,11.88
2023-01-28T04:46:20.618Z,13.95
2023-01-28T04:48:46.901Z,14.95
2023-01-28T04:51:13.245Z,13.02
2023-01-28T04:53:39.516Z,14.20
2023-01-28T04:56:05.965Z,14.88
2023-01-28T04:58:32.397Z,19.10
2023-01-28T05:00:59.745Z,17.58
2023-01-28T05:03:26.513Z,14.45
2023-01-28T05:05:53.151Z,14.45
2023-01-28T05:08:19.553Z,14.73
2023-01-28T05:10:45.978Z,12.43
2023-01-28T05:13:12.365Z,15.00
2023-01-28T05:15:38.676Z,17.65
2023-01-28T05:18:05.223Z,13.23
2023-01-28T05:20:31.525Z,17.33
2023-01-28T05:22:57.852Z,16.98
2023-01-28T05:25:24.165Z,13.70
2023-01-28T05:27:51.939Z,15.30
2023-01-28T05:30:19.336Z,16.77
2023-01-28T05:32:46.221Z,16.83
2023-01-28T05:35:12.642Z,17.00
2023-01-28T05:37:38.943Z,17.65
2023-01-28T05:40:05.871Z,17.13
2023-01-28T05:42:32.268Z,16.00
2023-01-28T05:44:58.569Z,20.38
2023-01-28T05:47:24.964Z,15.95
2023-01-28T05:49:51.256Z,18.50
2023-01-28T05:52:17.653Z,19.90
2023-01-28T05:54:43.925Z,16.85
2023-01-28T05:57:10.329Z,14.15
2023-01-28T05:59:36.622Z,15.95
2023-01-28T06:02:03.040Z,19.05
2023-01-28T06:04:29.463Z,15.85
2023-01-28T06:06:55.881Z,22.65
2023-01-28T06:09:22.228Z,14.60
2023-01-28T06:11:48.587Z,16.52
2023-01-28T06:14:14.880Z,17.77
2023-01-28T06:16:41.242Z,15.05
2023-01-28T06:19:07.525Z,16.77
2023-01-28T06:21:33.845Z,19.08
2023-01-28T06:24:00.283Z,20.13
2023-01-28T06:26:26.871Z,18.63
2023-01-28T06:28:53.254Z,15.27
2023-01-28T06:31:19.634Z,21.33
2023-01-28T06:33:46.381Z,20.67
2023-01-28T06:36:12.826Z,18.67
2023-01-28T06:38:39.200Z,17.67
2023-01-28T06:41:05.516Z,18.70
2023-01-28T06:43:31.817Z,23.08
2023-01-28T06:45:58.865Z,20.00
2023-01-28T06:48:25.977Z,18.90
2023-01-28T06:50:52.931Z,19.38
2023-01-28T06:53:19.832Z,16.08
2023-01-28T06:55:46.289Z,19.95
2023-01-28T06:58:12.842Z,21.45
2023-01-28T07:00:39.242Z,21.50
2023-01-28T07:03:05.943Z,20.88
2023-01-28T07:05:32.435Z,17.50
2023-01-28T07:07:58.758Z,20.40
2023-01-28T07:10:25.061Z,20.38
2023-01-28T07:12:51.374Z,22.98
2023-01-28T07:15:17.791Z,17.77
2023-01-28T07:17:45.367Z,17.63
2023-01-28T07:20:14.658Z,16.52
2023-01-28T07:22:42.843Z,21.95
2023-01-28T07:25:11.070Z,22.90
2023-01-28T07:27:37.510Z,25.65
2023-01-28T07:30:04.757Z,16.17
2023-01-28T07:32:31.066Z,18.95
2023-01-28T07:34:57.435Z,19.95
2023-01-28T07:37:23.846Z,20.35
2023-01-28T07:39:50.223Z,20.02
2023-01-28T07:42:16.498Z,16.13
2023-01-28T07:44:42.779Z,17.40
2023-01-28T07:47:10.275Z,18.65
2023-01-28T07:49:36.582Z,16.17
2023-01-28T07:52:02.864Z,15.35
2023-01-28T07:57:16.570Z,14.82
2023-01-28T07:59:42.865Z,14.65
2023-01-28T08:02:11.653Z,13.63
2023-01-28T08:04:38.076Z,17.50
2023-01-28T08:07:05.659Z,14.52
2023-01-28T08:09:33.022Z,16.00
2023-01-28T08:11:59.376Z,15.73
2023-01-28T08:14:25.648Z,17.48
2023-01-28T08:16:51.947Z,14.77
2023-01-28T08:19:18.342Z,14.50
2023-01-28T08:21:47.794Z,15.23
2023-01-28T08:24:14.176Z,14.55
2023-01-28T08:26:40.602Z,12.93
2023-01-28T08:29:06.911Z,13.52
2023-01-28T08:31:33.225Z,12.52
2023-01-28T08:34:01.996Z,14.02
2023-01-28T08:36:28.541Z,13.10
2023-01-28T08:38:55.230Z,13.27
2023-01-28T08:41:22.362Z,12.63
2023-01-28T08:43:48.953Z,9.90
2023-01-28T08:46:16.301Z,11.98
2023-01-28T08:48:42.722Z,12.77
2023-01-28T08:51:09.199Z,11.27
2023-01-28T08:53:35.582Z,12.50
2023-01-28T08:56:01.852Z,8.43
2023-01-28T08:58:30.786Z,10.70
2023-01-28T09:00:57.317Z,8.02
2023-01-28T09:03:23.769Z,8.85
2023-01-28T09:05:50.222Z,10.75
2023-01-28T09:08:16.559Z,10.77
2023-01-28T09:10:43.132Z,9.85
2023-01-28T09:13:12.480Z,9.00
2023-01-28T09:15:38.953Z,7.90
2023-01-28T09:18:05.900Z,12.02
2023-01-28T09:20:32.782Z,10.35
2023-01-28T09:22:59.985Z,12.65
2023-01-28T09:25:26.591Z,16.35
2023-01-28T09:27:53.000Z,10.43
2023-01-28T09:30:19.375Z,16.17
2023-01-28T09:32:49.253Z,10.32
2023-01-28T09:35:15.799Z,6.30
2023-01-28T09:37:42.095Z,7.88
2023-01-28T09:40:15.363Z,6.05
2023-01-28T09:43:08.801Z,5.82
2023-01-28T09:45:46.995Z,6.30
2023-01-28T09:48:24.293Z,5.55
2023-01-28T09:50:54.160Z,5.45
2023-01-28T09:53:24.982Z,4.78
2023-01-28T09:55:55.681Z,9.98
2023-01-28T09:58:22.094Z,6.35
2023-01-28T10:00:59.307Z,3.92
2023-01-28T10:03:53.612Z,6.72
2023-01-28T10:06:30.455Z,5.32
2023-01-28T10:09:22.651Z,6.10
2023-01-28T10:14:41.697Z,4.18
2023-01-28T10:17:11.849Z,4.47
2023-01-28T10:19:53.613Z,4.47
2023-01-28T10:22:26.792Z,5.22
2023-01-28T10:24:56.629Z,4.43
2023-01-28T10:27:28.019Z,5.38
2023-01-28T10:29:54.649Z,5.30
2023-01-28T10:32:32.400Z,3.67
2023-01-28T10:35:00.769Z,5.45
2023-01-28T10:37:28.236Z,4.68
2023-01-28T10:39:59.123Z,3.83
2023-01-28T10:42:34.800Z,4.03
2023-01-28T10:45:08.758Z,4.88
2023-01-28T10:47:50.340Z,3.95
2023-01-28T10:50:28.723Z,3.78
2023-01-28T10:52:59.177Z,4.47
2023-01-28T10:55:30.872Z,4.15
2023-01-28T10:57:58.259Z,3.53
2023-01-28T11:00:26.589Z,3.80
2023-01-28T11:02:54.733Z,2.72
2023-01-28T11:05:24.416Z,4.80
2023-01-28T11:07:50.819Z,3.45
2023-01-28T11:10:34.860Z,3.15
2023-01-28T11:13:03.981Z,4.18
2023-01-28T11:15:31.157Z,2.83
2023-01-28T11:18:04.874Z,4.85
2023-01-28T11:20:42.875Z,4.88
2023-01-28T11:23:22.353Z,4.57
2023-01-28T11:25:48.799Z,4.65
2023-01-28T11:28:21.695Z,2.97
2023-01-28T11:30:53.523Z,4.22
2023-01-28T11:33:31.126Z,3.40
2023-01-28T11:36:28.066Z,2.75
2023-01-28T11:38:55.534Z,2.83
2023-01-28T11:41:34.139Z,3.65
2023-01-28T11:44:11.470Z,4.35
2023-01-28T11:46:58.632Z,2.95
2023-01-28T11:49:49.520Z,3.53
2023-01-28T11:53:06.007Z,5.95
2023-01-28T11:55:58.368Z,2.63
2023-01-28T11:58:48.515Z,4.25
2023-01-28T12:01:23.660Z,6.45
2023-01-28T12:03:56.029Z,7.43
2023-01-28T12:06:37.838Z,4.57
2023-01-28T12:09:16.630Z,4.78
2023-01-28T12:12:14.914Z,6.57
2023-01-28T12:17:23.114Z,3.58
2023-01-28T12:19:56.290Z,3.72
2023-01-28T12:22:44.034Z,4.28
2023-01-28T12:25:27.301Z,2.47
2023-01-28T12:28:32.909Z,3.45
2023-01-28T12:31:23.760Z,3.58
2023-01-28T12:34:07.632Z,4.70
2023-01-28T12:36:59.825Z,4.03
2023-01-28T12:42:27.325Z,4.35
2023-01-28T12:44:59.411Z,6.38
2023-01-28T12:47:39.733Z,4.90
2023-01-28T12:50:13.366Z,5.93
2023-01-28T12:55:20.765Z,3.88
2023-01-28T12:57:47.638Z,4.25
2023-01-28T13:00:26.752Z,5.05
2023-01-28T13:03:09.441Z,3.50
2023-01-28T13:05:42.903Z,5.75
2023-01-28T13:08:23.563Z,4.50
2023-01-28T13:10:51.358Z,5.93
2023-01-28T13:15:46.795Z,6.95
2023-01-28T13:18:29.994Z,5.15
2023-01-28T13:20:56.328Z,4.35
2023-01-28T13:23:38.938Z,5.22
2023-01-28T13:26:23.019Z,4.75
2023-01-28T13:28:53.058Z,6.30
2023-01-28T13:31:23.911Z,7.78
2023-01-28T13:33:53.197Z,3.53
2023-01-28T13:36:30.063Z,8.30
2023-01-28T13:39:18.119Z,4.03
2023-01-28T13:41:56.168Z,4.93
2023-01-28T13:44:25.353Z,4.13
2023-01-28T13:46:58.430Z,4.25
2023-01-28T13:49:47.760Z,3.72
2023-01-28T13:52:18.407Z,7.43
2023-01-28T13:54:52.975Z,5.28
2023-01-28T13:57:53.998Z,6.60
2023-01-28T14:00:47.506Z,6.32
2023-01-28T14:03:29.010Z,5.00
2023-01-28T14:06:13.810Z,5.60
2023-01-28T14:08:59.176Z,7.38
2023-01-28T14:11:50.179Z,6.47
2023-01-28T14:14:33.726Z,8.43
2023-01-28T14:17:39.298Z,5.13
2023-01-28T14:20:17.592Z,4.18
2023-01-28T14:22:44.444Z,3.50
2023-01-28T14:25:27.212Z,4.93
2023-01-28T14:27:56.259Z,4.95
2023-01-28T14:30:32.147Z,4.13
2023-01-28T14:32:58.834Z,3.42
2023-01-28T14:35:30.585Z,7.20
2023-01-28T14:37:58.633Z,7.18
2023-01-28T14:40:25.403Z,4.70
2023-01-28T14:42:55.176Z,4.45
2023-01-28T14:45:51.636Z,4.40
2023-01-28T14:48:20.637Z,5.20
2023-01-28T14:50:58.961Z,5.97
2023-01-28T14:53:45.664Z,4.38
2023-01-28T14:56:36.731Z,5.53
2023-01-28T14:59:13.741Z,4.20
2023-01-28T15:01:45.156Z,5.60
2023-01-28T15:04:33.628Z,6.13
2023-01-28T15:07:16.737Z,5.32
2023-01-28T15:09:43.041Z,8.07
2023-01-28T15:12:10.016Z,5.43
2023-01-28T15:14:36.366Z,3.40
2023-01-28T15:17:03.177Z,8.88
2023-01-28T15:19:35.345Z,6.53
2023-01-28T15:22:07.136Z,6.53
2023-01-28T15:24:36.980Z,6.00
2023-01-28T15:27:03.632Z,7.82
2023-01-28T15:29:37.483Z,5.07
2023-01-28T15:32:05.149Z,6.13
2023-01-28T15:34:32.101Z,12.13
2023-01-28T15:37:00.227Z,6.45
2023-01-28T15:39:28.391Z,6.85
2023-01-28T15:42:02.090Z,6.47
2023-01-28T15:44:32.572Z,5.32
2023-01-28T15:47:11.547Z,4.57
2023-01-28T15:49:43.565Z,6.22
2023-01-28T15:52:10.161Z,6.78
2023-01-28T15:54:44.333Z,7.50
2023-01-28T15:57:21.570Z,6.50
2023-01-28T15:59:48.730Z,7.85
2023-01-28T16:02:22.538Z,7.10
2023-01-28T16:05:04.639Z,7.90
2023-01-28T16:07:33.151Z,6.35
2023-01-28T16:10:03.160Z,8.18
2023-01-28T16:12:29.710Z,7.20
2023-01-28T16:14:58.983Z,6.60
2023-01-28T16:17:29.364Z,8.70
2023-01-28T16:20:07.651Z,6.43
2023-01-28T16:22:38.105Z,8.18
2023-01-28T16:25:25.932Z,6.88
2023-01-28T16:27:52.226Z,8.27
2023-01-28T16:30:18.672Z,5.93
2023-01-28T16:32:45.480Z,6.20
2023-01-28T16:35:16.567Z,6.82
2023-01-28T16:37:47.227Z,7.82
2023-01-28T16:40:15.937Z,8.07
2023-01-28T16:42:42.569Z,7.70
2023-01-28T16:45:19.059Z,9.75
2023-01-28T16:47:45.614Z,9.35
2023-01-28T16:50:14.284Z,9.50
2023-01-28T16:52:41.800Z,6.28
2023-01-28T16:55:17.502Z,7.03
2023-01-28T16:57:45.257Z,5.85
2023-01-28T17:00:20.233Z,4.35
2023-01-28T17:02:46.729Z,5.70
2023-01-28T17:05:13.107Z,6.00
2023-01-28T17:07:39.392Z,4.50
2023-01-28T17:10:06.360Z,6.15
2023-01-28T17:12:32.707Z,6.18
2023-01-28T17:14:59.306Z,4.53
2023-01-28T17:17:25.634Z,8.98
2023-01-28T17:19:52.195Z,9.25
2023-01-28T17:22:18.494Z,7.85
2023-01-28T17:24:44.842Z,8.32
2023-01-28T17:27:11.127Z,8.52
2023-01-28T17:29:37.911Z,7.60
2023-01-28T17:32:04.360Z,7.85
2023-01-28T17:34:30.837Z,7.13
2023-01-28T17:36:57.165Z,6.38
2023-01-28T17:39:23.643Z,6.10
2023-01-28T17:41:49.977Z,5.82
2023-01-28T17:44:16.262Z,8.25
2023-01-28T17:46:42.559Z,19.30
2023-01-28T17:49:08.887Z,9.15
2023-01-28T17:51:35.563Z,10.70
2023-01-28T17:54:02.008Z,9.00
2023-01-28T17:56:29.049Z,7.13
2023-01-28T17:58:58.651Z,7.53
2023-01-28T18:01:26.516Z,19.45
2023-01-28T18:11:14.263Z,5.47
2023-01-28T18:13:42.236Z,6.60
2023-01-28T18:16:12.518Z,6.95
2023-01-28T18:18:38.897Z,7.63
2023-01-28T18:21:07.017Z,9.68
2023-01-28T18:23:34.571Z,9.23
2023-01-28T18:26:02.740Z,8.32
2023-01-28T18:28:29.149Z,6.32
2023-01-28T18:30:55.624Z,7.05
2023-01-28T18:33:23.343Z,11.80
2023-01-28T18:35:50.006Z,10.95
2023-01-28T18:38:16.785Z,11.05
2023-01-28T18:40:44.411Z,12.18
2023-01-28T18:43:10.747Z,9.25
2023-01-28T18:45:41.554Z,7.63
2023-01-28T18:48:08.030Z,10.50
2023-01-28T18:50:34.331Z,12.30
2023-01-28T18:53:00.695Z,9.48
2023-01-28T18:55:27.189Z,9.73
2023-01-28T18:57:53.634Z,7.55
2023-01-28T19:00:20.012Z,7.05
2023-01-28T19:02:46.425Z,8.70
2023-01-28T19:05:12.872Z,8.23
2023-01-28T19:07:39.177Z,9.02
2023-01-28T19:10:06.075Z,10.48
2023-01-28T19:12:32.413Z,10.27
2023-01-28T19:14:58.746Z,6.88
2023-01-28T19:17:25.139Z,6.60
2023-01-28T19:19:51.469Z,10.27
2023-01-28T19:22:17.942Z,8.80
2023-01-28T19:24:44.254Z,9.77
2023-01-28T19:27:10.653Z,9.23
2023-01-28T19:29:36.965Z,8.93
2023-01-28T19:32:03.553Z,9.95
2023-01-28T19:34:29.913Z,10.27
2023-01-28T19:36:56.198Z,13.27
2023-01-28T19:39:22.521Z,10.57
2023-01-28T19:41:48.810Z,8.23
2023-01-28T19:44:15.164Z,9.50
2023-01-28T19:46:41.460Z,10.48
2023-01-28T19:49:07.943Z,9.48
2023-01-28T19:51:34.335Z,7.82
2023-01-28T19:54:00.634Z,10.98
2023-01-28T19:56:27.356Z,8.95
2023-01-28T19:58:54.471Z,7.32
2023-01-28T20:01:24.304Z,16.08
2023-01-28T20:03:52.254Z,10.02
2023-01-28T20:08:45.701Z,11.77
2023-01-28T20:11:15.030Z,12.52
2023-01-28T20:13:43.706Z,8.80
2023-01-28T20:16:19.802Z,7.38
2023-01-28T20:19:06.782Z,9.55
2023-01-28T20:21:34.044Z,8.77
2023-01-28T20:24:01.731Z,10.32
2023-01-28T20:26:30.653Z,11.52
2023-01-28T20:29:00.295Z,9.27
2023-01-28T20:31:26.681Z,10.70
2023-01-28T20:33:53.153Z,11.32
2023-01-28T20:36:19.660Z,11.13
2023-01-28T20:38:47.410Z,7.80
2023-01-28T20:41:16.952Z,11.77
2023-01-28T20:43:44.754Z,9.32
2023-01-28T20:46:17.468Z,7.72
2023-01-28T20:48:44.101Z,9.32
2023-01-28T20:51:11.481Z,7.45
2023-01-28T20:53:38.553Z,10.73
2023-01-28T20:56:05.922Z,9.15
2023-01-28T20:58:32.686Z,12.18
2023-01-28T21:00:59.211Z,10.23
2023-01-28T21:03:25.761Z,10.23
2023-01-28T21:05:52.423Z,9.60
2023-01-28T21:08:19.158Z,12.23
2023-01-28T21:10:46.259Z,9.38
2023-01-28T21:13:13.978Z,9.82
2023-01-28T21:15:40.494Z,8.60
2023-01-28T21:18:06.934Z,10.20
2023-01-28T21:20:33.600Z,10.63
2023-01-28T21:22:59.971Z,9.15
2023-01-28T21:25:26.333Z,12.95
2023-01-28T21:27:52.896Z,9.80
2023-01-28T21:30:19.584Z,7.80
2023-01-28T21:32:45.962Z,10.80
2023-01-28T21:35:12.266Z,6.72
2023-01-28T21:37:38.684Z,7.85
2023-01-28T21:40:06.326Z,6.25
2023-01-28T21:42:32.610Z,6.95
2023-01-28T21:44:58.982Z,8.88
2023-01-28T21:47:25.257Z,7.60
2023-01-28T21:49:51.542Z,7.90
2023-01-28T21:52:17.895Z,9.65
2023-01-28T21:54:44.375Z,8.73
2023-01-28T21:57:10.689Z,11.25
2023-01-28T21:59:37.017Z,8.30
2023-01-28T22:02:12.005Z,6.15
2023-01-28T22:04:40.855Z,5.75
2023-01-28T22:07:10.122Z,6.38
2023-01-28T22:09:36.914Z,8.90
2023-01-28T22:12:04.383Z,7.22
2023-01-28T22:14:30.763Z,7.28
2023-01-28T22:16:57.139Z,8.13
2023-01-28T22:19:23.566Z,6.13
2023-01-28T22:21:49.888Z,7.40
2023-01-28T22:24:21.435Z,7.63
2023-01-28T22:26:48.533Z,8.43
2023-01-28T22:29:16.464Z,10.52
2023-01-28T22:34:10.930Z,8.20
2023-01-28T22:36:37.277Z,9.40
2023-01-28T22:39:05.445Z,9.23
2023-01-28T22:41:32.013Z,7.85
2023-01-28T22:43:58.659Z,8.40
2023-01-28T22:46:25.206Z,6.68
2023-01-28T22:48:51.709Z,9.30
2023-01-28T22:51:21.084Z,12.07
2023-01-28T22:53:49.019Z,7.20
2023-01-28T22:58:42.852Z,8.45
2023-01-28T23:01:09.200Z,10.35
2023-01-28T23:03:36.411Z,11.05
2023-01-28T23:06:04.831Z,11.35
2023-01-28T23:08:32.678Z,9.68
2023-01-28T23:11:01.792Z,6.90
2023-01-28T23:13:29.476Z,11.10
2023-01-28T23:15:56.757Z,7.63
2023-01-28T23:18:23.157Z,5.72
2023-01-28T23:20:49.471Z,11.65
2023-01-28T23:23:17.268Z,8.88
2023-01-28T23:25:43.555Z,9.30
2023-01-28T23:28:09.827Z,7.80
2023-01-28T23:30:36.408Z,12.40
2023-01-28T23:33:03.157Z,8.23
2023-01-28T23:35:29.494Z,6.72
2023-01-28T23:37:55.889Z,8.90
2023-01-28T23:40:22.170Z,8.10
2023-01-28T23:42:49.081Z,8.65
2023-01-28T23:45:15.512Z,8.07
2023-01-28T23:47:41.802Z,8.75
2023-01-28T23:50:08.889Z,7.85
2023-01-28T23:52:35.377Z,8.50
2023-01-28T23:55:02.338Z,9.57
2023-01-28T23:57:28.679Z,7.85
2023-01-28T23:59:54.981Z,7.32
